createdAt,value
2023-02-15T00:00:11.635Z,16.50
2023-02-15T00:02:59.167Z,17.80
2023-02-15T00:05:26.311Z,18.83
2023-02-15T00:07:53.777Z,22.70
2023-02-15T00:10:20.961Z,23.08
2023-02-15T00:12:48.517Z,21.02
2023-02-15T00:15:15.694Z,21.75
2023-02-15T00:17:43.172Z,22.77
2023-02-15T00:20:10.742Z,21.83
2023-02-15T00:22:38.223Z,22.77
2023-02-15T00:25:05.795Z,20.30
2023-02-15T00:27:35.146Z,22.13
2023-02-15T00:30:03.793Z,24.27
2023-02-15T00:32:31.335Z,22.83
2023-02-15T00:34:58.598Z,20.25
2023-02-15T00:37:26.106Z,21.35
2023-02-15T00:39:53.245Z,19.42
2023-02-15T00:42:20.721Z,18.58
2023-02-15T00:44:47.833Z,22.15
2023-02-15T00:47:15.350Z,22.13
2023-02-15T00:49:42.457Z,22.23
2023-02-15T00:52:10.299Z,25.45
2023-02-15T00:54:39.737Z,20.17
2023-02-15T00:57:07.399Z,23.63
2023-02-15T00:59:35.785Z,23.75
2023-02-15T01:02:03.325Z,21.60
2023-02-15T01:04:30.600Z,24.42
2023-02-15T01:06:58.363Z,18.13
2023-02-15T01:09:25.729Z,23.90
2023-02-15T01:11:53.369Z,17.67
2023-02-15T01:14:20.581Z,22.77
2023-02-15T01:16:48.047Z,21.08
2023-02-15T01:19:15.870Z,26.63
2023-02-15T01:21:43.309Z,22.73
2023-02-15T01:24:17.785Z,29.17
2023-02-15T01:26:45.205Z,23.80
2023-02-15T01:29:12.553Z,22.95
2023-02-15T01:31:40.277Z,23.48
2023-02-15T01:34:07.745Z,23.75
2023-02-15T01:36:36.276Z,26.35
2023-02-15T01:39:03.770Z,25.35
2023-02-15T01:41:32.428Z,22.52
2023-02-15T01:44:02.835Z,24.42
2023-02-15T01:46:41.664Z,26.85
2023-02-15T01:49:16.179Z,25.88
2023-02-15T01:51:46.950Z,19.65
2023-02-15T01:54:14.040Z,20.60
2023-02-15T01:56:42.865Z,22.98
2023-02-15T01:59:15.949Z,21.02
2023-02-15T02:01:44.414Z,21.30
2023-02-15T02:04:24.188Z,26.05
2023-02-15T02:06:52.449Z,22.75
2023-02-15T02:09:19.595Z,20.55
2023-02-15T02:11:49.183Z,20.42
2023-02-15T02:14:17.674Z,21.67
2023-02-15T02:17:08.049Z,21.27
2023-02-15T02:20:17.817Z,23.95
2023-02-15T02:23:06.223Z,21.42
2023-02-15T02:26:04.541Z,23.23
2023-02-15T02:29:05.908Z,23.52
2023-02-15T02:31:38.949Z,23.00
2023-02-15T02:34:23.806Z,24.95
2023-02-15T02:37:13.620Z,23.73
2023-02-15T02:39:50.614Z,25.70
2023-02-15T02:42:30.796Z,27.33
2023-02-15T02:45:09.152Z,23.42
2023-02-15T02:47:55.117Z,28.40
2023-02-15T02:50:29.184Z,20.70
2023-02-15T02:52:58.314Z,24.75
2023-02-15T02:55:52.490Z,36.20
2023-02-15T02:58:39.394Z,23.95
2023-02-15T03:01:21.702Z,23.77
2023-02-15T03:04:04.731Z,22.35
2023-02-15T03:06:52.294Z,26.50
2023-02-15T03:09:23.977Z,24.65
2023-02-15T03:11:51.784Z,23.52
2023-02-15T03:14:21.250Z,30.15
2023-02-15T03:16:51.377Z,28.90
2023-02-15T03:19:33.498Z,25.00
2023-02-15T03:22:14.761Z,27.80
2023-02-15T03:24:52.441Z,23.25
2023-02-15T03:27:26.653Z,29.33
2023-02-15T03:29:58.555Z,21.88
2023-02-15T03:32:29.438Z,20.58
2023-02-15T03:34:56.883Z,19.77
2023-02-15T03:37:45.833Z,28.02
2023-02-15T03:40:57.316Z,28.13
2023-02-15T03:44:01.885Z,25.50
2023-02-15T03:46:43.603Z,24.23
2023-02-15T03:49:41.105Z,27.67
2023-02-15T03:52:11.498Z,26.30
2023-02-15T03:54:43.359Z,22.13
2023-02-15T03:57:39.491Z,21.10
2023-02-15T04:00:33.821Z,18.30
2023-02-15T04:03:24.003Z,19.10
2023-02-15T04:05:51.779Z,20.60
2023-02-15T04:08:19.034Z,17.33
2023-02-15T04:10:57.267Z,21.30
2023-02-15T04:13:32.806Z,17.95
2023-02-15T04:16:07.572Z,18.40
2023-02-15T04:19:01.789Z,18.85
2023-02-15T04:21:50.025Z,15.23
2023-02-15T04:24:36.508Z,17.33
2023-02-15T04:27:05.427Z,17.17
2023-02-15T04:29:33.270Z,15.45
2023-02-15T04:32:02.276Z,15.27
2023-02-15T04:34:29.462Z,16.38
2023-02-15T04:36:57.062Z,14.65
2023-02-15T04:39:24.311Z,15.20
2023-02-15T04:41:52.034Z,17.45
2023-02-15T04:44:19.244Z,18.20
2023-02-15T04:46:46.823Z,15.55
2023-02-15T04:49:13.995Z,17.30
2023-02-15T04:51:41.784Z,25.75
2023-02-15T04:54:09.022Z,16.45
2023-02-15T04:56:38.908Z,19.92
2023-02-15T04:59:06.414Z,20.52
2023-02-15T05:01:33.830Z,25.45
2023-02-15T05:04:01.132Z,16.83
2023-02-15T05:06:28.581Z,19.35
2023-02-15T05:08:55.893Z,20.33
2023-02-15T05:11:23.419Z,20.50
2023-02-15T05:13:50.514Z,20.70
2023-02-15T05:16:18.849Z,22.77
2023-02-15T05:18:46.099Z,23.63
2023-02-15T05:21:14.678Z,25.45
2023-02-15T05:23:41.833Z,22.33
2023-02-15T05:26:31.915Z,25.98
2023-02-15T05:28:59.006Z,19.85
2023-02-15T05:31:26.949Z,27.52
2023-02-15T05:33:54.237Z,27.27
2023-02-15T05:36:21.638Z,24.27
2023-02-15T05:38:49.178Z,19.92
2023-02-15T05:41:16.604Z,17.10
2023-02-15T05:43:43.971Z,19.73
2023-02-15T05:46:12.802Z,23.85
2023-02-15T05:48:40.003Z,32.50
2023-02-15T05:51:10.506Z,21.50
2023-02-15T05:53:39.405Z,22.05
2023-02-15T05:56:10.651Z,108.47
2023-02-15T05:58:40.887Z,28.00
2023-02-15T06:01:16.454Z,22.98
2023-02-15T06:03:44.132Z,33.70
2023-02-15T06:06:12.029Z,23.55
2023-02-15T06:08:39.649Z,18.00
2023-02-15T06:11:07.868Z,31.60
2023-02-15T06:13:38.364Z,27.38
2023-02-15T06:16:07.081Z,30.42
2023-02-15T06:18:35.018Z,21.90
2023-02-15T06:21:03.344Z,17.63
2023-02-15T06:23:30.476Z,25.73
2023-02-15T06:25:58.019Z,19.67
2023-02-15T06:28:26.526Z,63.40
2023-02-15T06:30:54.128Z,17.63
2023-02-15T06:33:22.585Z,14.85
2023-02-15T06:35:50.057Z,13.60
2023-02-15T06:38:18.652Z,14.38
2023-02-15T06:40:46.023Z,71.47
2023-02-15T06:43:13.230Z,14.75
2023-02-15T06:45:42.050Z,14.98
2023-02-15T06:48:09.420Z,16.13
2023-02-15T06:50:36.845Z,13.15
2023-02-15T06:53:04.208Z,13.15
2023-02-15T06:55:31.674Z,16.70
2023-02-15T06:57:58.869Z,12.82
2023-02-15T07:00:26.524Z,15.90
2023-02-15T07:02:58.808Z,12.38
2023-02-15T07:05:31.921Z,13.18
2023-02-15T07:08:00.301Z,12.35
2023-02-15T07:10:29.882Z,22.35
2023-02-15T07:12:57.281Z,25.30
2023-02-15T07:15:25.455Z,13.93
2023-02-15T07:17:52.675Z,15.93
2023-02-15T07:20:22.840Z,15.25
2023-02-15T07:22:50.379Z,15.60
2023-02-15T07:25:18.366Z,213.77
2023-02-15T07:27:46.300Z,23.50
2023-02-15T07:30:16.569Z,20.48
2023-02-15T07:33:05.109Z,58.20
2023-02-15T07:35:33.957Z,61.50
2023-02-15T07:38:02.254Z,92.80
2023-02-15T07:40:29.708Z,14.85
2023-02-15T07:43:00.137Z,15.20
2023-02-15T07:45:28.174Z,14.63
2023-02-15T07:47:55.603Z,15.60
2023-02-15T07:50:23.349Z,31.40
2023-02-15T07:52:50.498Z,26.48
2023-02-15T07:55:17.948Z,18.35
2023-02-15T07:57:46.985Z,18.80
2023-02-15T08:00:16.426Z,19.15
2023-02-15T08:02:49.154Z,32.28
2023-02-15T08:05:18.034Z,23.52
2023-02-15T08:07:45.197Z,21.33
2023-02-15T08:10:32.575Z,41.72
2023-02-15T08:12:59.778Z,17.50
2023-02-15T08:15:27.225Z,15.20
2023-02-15T08:17:54.425Z,15.18
2023-02-15T08:20:21.862Z,17.35
2023-02-15T08:22:49.020Z,25.75
2023-02-15T08:25:16.491Z,22.60
2023-02-15T08:27:43.703Z,18.13
2023-02-15T08:30:11.862Z,17.55
2023-02-15T08:32:39.073Z,18.73
2023-02-15T08:35:06.877Z,15.32
2023-02-15T08:37:34.013Z,15.10
2023-02-15T08:40:01.475Z,15.18
2023-02-15T08:42:28.596Z,13.43
2023-02-15T08:44:56.058Z,15.25
2023-02-15T08:47:23.209Z,15.10
2023-02-15T08:49:52.160Z,17.20
2023-02-15T08:52:19.370Z,19.25
2023-02-15T08:54:46.835Z,23.13
2023-02-15T08:57:13.988Z,19.83
2023-02-15T08:59:41.419Z,24.77
2023-02-15T09:02:11.487Z,22.25
2023-02-15T09:04:38.974Z,20.85
2023-02-15T09:07:06.199Z,24.67
2023-02-15T09:09:33.690Z,20.80
2023-02-15T09:12:00.861Z,21.20
2023-02-15T09:14:28.789Z,20.33
2023-02-15T09:16:56.377Z,22.75
2023-02-15T09:19:25.125Z,25.48
2023-02-15T09:21:52.720Z,29.90
2023-02-15T09:24:20.272Z,39.03
2023-02-15T09:26:49.441Z,29.38
2023-02-15T09:29:18.850Z,29.35
2023-02-15T09:31:51.083Z,32.03
2023-02-15T09:34:21.516Z,26.63
2023-02-15T09:36:49.613Z,22.55
2023-02-15T09:39:24.738Z,19.70
2023-02-15T09:42:27.344Z,23.25
2023-02-15T09:45:06.624Z,32.38
2023-02-15T09:47:58.289Z,30.40
2023-02-15T09:51:01.717Z,31.02
2023-02-15T09:53:40.121Z,30.52
2023-02-15T09:56:10.134Z,24.02
2023-02-15T09:58:51.937Z,31.75
2023-02-15T10:01:35.928Z,29.33
2023-02-15T10:04:14.167Z,33.05
2023-02-15T10:07:02.992Z,25.27
2023-02-15T10:09:56.840Z,23.52
2023-02-15T10:12:50.899Z,26.98
2023-02-15T10:15:40.666Z,26.65
2023-02-15T10:18:08.112Z,23.80
2023-02-15T10:21:03.969Z,27.35
2023-02-15T10:23:31.552Z,32.47
2023-02-15T10:26:17.342Z,41.75
2023-02-15T10:29:17.727Z,33.83
2023-02-15T10:31:50.878Z,35.03
2023-02-15T10:34:39.150Z,32.03
2023-02-15T10:37:12.110Z,27.88
2023-02-15T10:39:51.292Z,29.58
2023-02-15T10:42:55.309Z,32.67
2023-02-15T10:45:37.222Z,40.47
2023-02-15T10:48:16.552Z,30.20
2023-02-15T10:50:51.540Z,29.60
2023-02-15T10:53:21.450Z,27.67
2023-02-15T10:56:04.596Z,28.52
2023-02-15T10:58:44.756Z,33.08
2023-02-15T11:01:27.478Z,32.42
2023-02-15T11:04:17.447Z,41.20
2023-02-15T11:06:53.162Z,34.95
2023-02-15T11:09:23.691Z,35.83
2023-02-15T11:11:54.351Z,34.85
2023-02-15T11:15:01.451Z,33.40
2023-02-15T11:17:39.184Z,33.65
2023-02-15T11:20:19.922Z,32.38
2023-02-15T11:22:54.359Z,37.88
2023-02-15T11:25:35.410Z,37.20
2023-02-15T11:28:11.151Z,41.70
2023-02-15T11:30:48.832Z,42.28
2023-02-15T11:33:23.301Z,40.00
2023-02-15T11:36:04.817Z,39.63
2023-02-15T11:38:37.546Z,44.42
2023-02-15T11:41:10.737Z,47.38
2023-02-15T11:43:51.096Z,32.38
2023-02-15T11:46:19.963Z,35.47
2023-02-15T11:48:47.494Z,38.05
2023-02-15T11:51:22.718Z,37.90
2023-02-15T11:53:51.884Z,34.50
2023-02-15T11:56:27.195Z,34.72
2023-02-15T11:59:01.636Z,31.85
2023-02-15T12:01:54.864Z,36.13
2023-02-15T12:04:41.246Z,30.17
2023-02-15T12:07:22.854Z,33.47
2023-02-15T12:10:19.209Z,31.05
2023-02-15T12:12:46.543Z,34.65
2023-02-15T12:15:15.144Z,37.58
2023-02-15T12:18:00.270Z,33.38
2023-02-15T12:20:36.864Z,30.77
2023-02-15T12:23:12.736Z,32.70
2023-02-15T12:25:55.460Z,38.63
2023-02-15T12:28:35.431Z,37.67
2023-02-15T12:31:09.128Z,37.38
2023-02-15T12:33:42.954Z,36.47
2023-02-15T12:36:28.993Z,34.83
2023-02-15T12:39:18.288Z,37.88
2023-02-15T12:41:57.821Z,35.88
2023-02-15T12:44:29.818Z,35.33
2023-02-15T12:47:01.467Z,34.72
2023-02-15T12:49:30.457Z,34.95
2023-02-15T12:52:00.549Z,35.80
2023-02-15T12:54:41.487Z,37.78
2023-02-15T12:57:26.770Z,38.13
2023-02-15T12:59:56.939Z,39.40
2023-02-15T13:02:53.704Z,33.28
2023-02-15T13:05:44.157Z,39.63
2023-02-15T13:08:28.208Z,43.25
2023-02-15T13:11:05.203Z,37.58
2023-02-15T13:13:35.586Z,41.78
2023-02-15T13:16:13.591Z,39.90
2023-02-15T13:18:45.102Z,39.53
2023-02-15T13:21:22.173Z,43.40
2023-02-15T13:23:54.599Z,47.28
2023-02-15T13:26:24.602Z,47.85
2023-02-15T13:28:56.560Z,44.47
2023-02-15T13:31:34.193Z,50.30
2023-02-15T13:34:11.100Z,54.83
2023-02-15T13:37:04.925Z,55.38
2023-02-15T13:39:55.893Z,48.65
2023-02-15T13:42:39.537Z,53.78
2023-02-15T13:45:34.987Z,50.65
2023-02-15T13:48:17.556Z,57.00
2023-02-15T13:51:03.924Z,66.25
2023-02-15T13:53:43.270Z,60.65
2023-02-15T13:56:32.253Z,64.47
2023-02-15T13:59:18.903Z,66.97
2023-02-15T14:01:46.312Z,68.55
2023-02-15T14:04:32.022Z,71.78
2023-02-15T14:07:22.864Z,80.30
2023-02-15T14:10:03.752Z,86.63
2023-02-15T14:12:36.627Z,83.95
2023-02-15T14:15:33.395Z,71.93
2023-02-15T14:18:14.719Z,71.88
2023-02-15T14:21:11.299Z,77.65
2023-02-15T14:23:57.203Z,80.43
2023-02-15T14:26:27.174Z,95.97
2023-02-15T14:29:07.532Z,88.22
2023-02-15T14:31:42.807Z,91.50
2023-02-15T14:34:28.829Z,84.13
2023-02-15T14:36:57.089Z,91.20
2023-02-15T14:39:51.377Z,90.45
2023-02-15T14:42:24.575Z,88.05
2023-02-15T14:45:21.518Z,102.47
2023-02-15T14:48:24.985Z,95.75
2023-02-15T14:50:52.631Z,92.13
2023-02-15T14:53:39.515Z,88.55
2023-02-15T14:56:08.478Z,84.22
2023-02-15T14:58:36.158Z,90.45
2023-02-15T15:01:13.654Z,88.25
2023-02-15T15:03:54.091Z,82.88
2023-02-15T15:06:28.770Z,80.80
2023-02-15T15:09:13.211Z,87.97
2023-02-15T15:11:44.930Z,80.57
2023-02-15T15:14:35.181Z,77.90
2023-02-15T15:17:04.866Z,82.22
2023-02-15T15:19:59.575Z,74.75
2023-02-15T15:22:29.609Z,65.60
2023-02-15T15:25:02.156Z,76.32
2023-02-15T15:27:55.691Z,64.60
2023-02-15T15:30:23.266Z,67.40
2023-02-15T15:32:59.604Z,73.50
2023-02-15T15:35:53.750Z,72.07
2023-02-15T15:38:58.439Z,71.85
2023-02-15T15:42:05.311Z,70.85
2023-02-15T15:45:00.599Z,63.83
2023-02-15T15:47:56.143Z,70.25
2023-02-15T15:50:33.179Z,70.45
2023-02-15T15:53:02.568Z,78.03
2023-02-15T15:55:32.997Z,76.15
2023-02-15T15:58:06.960Z,77.15
2023-02-15T16:00:45.771Z,77.78
2023-02-15T16:03:23.791Z,72.57
2023-02-15T16:05:56.213Z,71.35
2023-02-15T16:08:49.390Z,70.65
2023-02-15T16:11:26.397Z,75.65
2023-02-15T16:13:54.550Z,75.15
2023-02-15T16:16:25.993Z,79.88
2023-02-15T16:18:53.549Z,69.05
2023-02-15T16:21:24.543Z,79.13
2023-02-15T16:24:06.666Z,69.43
2023-02-15T16:26:45.969Z,69.35
2023-02-15T16:29:18.815Z,76.32
2023-02-15T16:32:29.136Z,69.38
2023-02-15T16:35:02.114Z,66.65
2023-02-15T16:37:38.771Z,74.88
2023-02-15T16:40:06.828Z,63.42
2023-02-15T16:42:36.017Z,76.75
2023-02-15T16:45:15.653Z,77.50
2023-02-15T16:47:48.094Z,74.95
2023-02-15T16:50:38.931Z,69.13
2023-02-15T16:53:15.490Z,66.65
2023-02-15T16:55:44.043Z,78.60
2023-02-15T16:58:17.641Z,64.18
2023-02-15T17:00:45.801Z,58.55
2023-02-15T17:03:13.268Z,67.47
2023-02-15T17:05:56.063Z,61.15
2023-02-15T17:08:34.260Z,59.83
2023-02-15T17:11:22.997Z,63.85
2023-02-15T17:14:06.518Z,68.53
2023-02-15T17:16:50.580Z,58.92
2023-02-15T17:19:20.873Z,55.22
2023-02-15T17:22:10.133Z,53.97
2023-02-15T17:24:44.022Z,55.40
2023-02-15T17:27:19.263Z,52.97
2023-02-15T17:29:58.118Z,47.60
2023-02-15T17:32:28.451Z,49.30
2023-02-15T17:35:29.489Z,50.63
2023-02-15T17:38:21.520Z,53.33
2023-02-15T17:40:49.051Z,57.17
2023-02-15T17:43:16.113Z,58.45
2023-02-15T17:45:51.400Z,56.10
2023-02-15T17:48:33.466Z,64.13
2023-02-15T17:51:06.361Z,64.20
2023-02-15T17:53:34.405Z,62.15
2023-02-15T17:56:10.446Z,69.95
2023-02-15T17:58:39.424Z,63.78
2023-02-15T18:01:36.970Z,57.63
2023-02-15T18:04:23.986Z,60.97
2023-02-15T18:07:10.061Z,61.88
2023-02-15T18:09:55.835Z,65.07
2023-02-15T18:12:38.652Z,57.28
2023-02-15T18:15:07.323Z,66.90
2023-02-15T18:17:38.326Z,61.00
2023-02-15T18:20:24.340Z,66.32
2023-02-15T18:22:52.489Z,65.03
2023-02-15T18:25:23.636Z,67.20
2023-02-15T18:27:53.359Z,65.25
2023-02-15T18:30:24.017Z,53.88
2023-02-15T18:32:54.014Z,73.40
2023-02-15T18:35:24.612Z,58.83
2023-02-15T18:37:53.625Z,62.75
2023-02-15T18:40:24.179Z,62.45
2023-02-15T18:42:51.810Z,56.53
2023-02-15T18:45:24.886Z,55.25
2023-02-15T18:47:52.291Z,54.10
2023-02-15T18:50:21.766Z,51.33
2023-02-15T18:52:53.169Z,51.10
2023-02-15T18:55:23.631Z,53.42
2023-02-15T18:57:53.336Z,58.30
2023-02-15T19:00:25.883Z,56.90
2023-02-15T19:02:54.528Z,67.18
2023-02-15T19:05:22.635Z,56.30
2023-02-15T19:07:51.464Z,52.70
2023-02-15T19:10:24.653Z,59.17
2023-02-15T19:12:53.058Z,60.38
2023-02-15T19:15:30.586Z,66.03
2023-02-15T19:17:58.315Z,63.95
2023-02-15T19:20:44.104Z,59.80
2023-02-15T19:23:20.887Z,53.65
2023-02-15T19:25:49.815Z,58.67
2023-02-15T19:28:21.379Z,59.28
2023-02-15T19:30:48.642Z,71.55
2023-02-15T19:33:20.812Z,67.55
2023-02-15T19:35:54.087Z,59.00
2023-02-15T19:38:29.208Z,61.58
2023-02-15T19:41:01.994Z,64.57
2023-02-15T19:43:30.241Z,61.08
2023-02-15T19:45:57.467Z,66.43
2023-02-15T19:48:24.997Z,65.03
2023-02-15T19:50:56.960Z,58.10
2023-02-15T19:53:29.076Z,57.90
2023-02-15T19:55:56.371Z,69.05
2023-02-15T19:58:24.326Z,67.57
2023-02-15T20:00:52.384Z,60.40
2023-02-15T20:03:20.148Z,60.83
2023-02-15T20:05:47.816Z,62.03
2023-02-15T20:08:19.432Z,63.30
2023-02-15T20:10:46.700Z,62.13
2023-02-15T20:13:16.360Z,66.55
2023-02-15T20:15:44.510Z,66.82
2023-02-15T20:18:12.619Z,67.15
2023-02-15T20:20:41.653Z,75.82
2023-02-15T20:23:31.426Z,69.97
2023-02-15T20:26:01.096Z,66.88
2023-02-15T20:28:31.301Z,80.80
2023-02-15T20:30:58.896Z,74.40
2023-02-15T20:33:26.103Z,74.85
2023-02-15T20:35:53.680Z,71.53
2023-02-15T20:38:24.823Z,78.57
2023-02-15T20:41:12.479Z,73.78
2023-02-15T20:43:39.706Z,69.28
2023-02-15T20:46:07.766Z,78.55
2023-02-15T20:48:35.513Z,73.55
2023-02-15T20:51:03.877Z,74.90
2023-02-15T20:53:31.307Z,72.80
2023-02-15T20:55:58.795Z,69.40
2023-02-15T20:58:28.861Z,79.05
2023-02-15T21:00:58.973Z,70.10
2023-02-15T21:03:31.035Z,68.97
2023-02-15T21:05:59.453Z,71.47
2023-02-15T21:08:27.382Z,70.55
2023-02-15T21:10:55.153Z,64.28
2023-02-15T21:13:29.643Z,69.63
2023-02-15T21:15:58.197Z,69.30
2023-02-15T21:18:27.960Z,63.88
2023-02-15T21:20:58.369Z,65.80
2023-02-15T21:23:41.328Z,60.40
2023-02-15T21:26:21.339Z,58.55
2023-02-15T21:28:50.141Z,58.40
2023-02-15T21:31:25.797Z,56.10
2023-02-15T21:33:53.479Z,57.38
2023-02-15T21:36:24.298Z,66.45
2023-02-15T21:38:53.811Z,69.25
2023-02-15T21:41:41.795Z,61.75
2023-02-15T21:44:39.848Z,61.65
2023-02-15T21:47:46.162Z,63.35
2023-02-15T21:50:43.716Z,59.92
2023-02-15T21:53:18.249Z,63.42
2023-02-15T21:55:45.365Z,68.80
2023-02-15T21:58:20.306Z,69.60
2023-02-15T22:00:48.337Z,67.03
2023-02-15T22:03:16.064Z,73.10
2023-02-15T22:05:43.216Z,71.28
2023-02-15T22:08:13.315Z,71.63
2023-02-15T22:10:41.385Z,70.13
2023-02-15T22:13:13.765Z,78.65
2023-02-15T22:15:41.913Z,72.28
2023-02-15T22:18:20.675Z,66.15
2023-02-15T22:20:48.880Z,69.95
2023-02-15T22:23:16.392Z,69.78
2023-02-15T22:25:54.618Z,54.28
2023-02-15T22:28:31.685Z,64.85
2023-02-15T22:30:58.988Z,59.97
2023-02-15T22:33:30.082Z,65.88
2023-02-15T22:35:57.361Z,61.05
2023-02-15T22:38:25.084Z,65.45
2023-02-15T22:40:55.328Z,60.10
2023-02-15T22:43:40.667Z,63.15
2023-02-15T22:46:17.302Z,81.88
2023-02-15T22:51:17.858Z,64.72
2023-02-15T22:53:45.590Z,73.50
2023-02-15T22:56:37.976Z,66.45
2023-02-15T22:59:10.694Z,78.90
2023-02-15T23:01:38.612Z,65.53
2023-02-15T23:04:06.227Z,88.15
2023-02-15T23:06:34.603Z,75.18
2023-02-15T23:09:02.208Z,72.82
2023-02-15T23:11:29.383Z,125.20
2023-02-15T23:13:57.532Z,72.47
2023-02-15T23:16:24.772Z,72.30
2023-02-15T23:18:52.289Z,73.30
2023-02-15T23:21:25.838Z,74.50
2023-02-15T23:23:57.490Z,67.57
2023-02-15T23:26:31.770Z,65.10
2023-02-15T23:29:00.873Z,66.78
2023-02-15T23:31:34.212Z,58.78
2023-02-15T23:34:07.339Z,63.35
2023-02-15T23:36:37.372Z,60.13
2023-02-15T23:39:44.700Z,61.92
2023-02-15T23:42:18.867Z,57.05
2023-02-15T23:44:48.029Z,59.17
2023-02-15T23:47:53.525Z,61.00
2023-02-15T23:50:24.451Z,56.50
2023-02-15T23:52:52.946Z,54.65
2023-02-15T23:55:21.517Z,63.63
2023-02-15T23:57:49.678Z,61.55
